Bei Facebook empfehlenBei Twitter postenGoogle plusPinterest

Das Wetter im Erzgebirge am 08.07.2015

Wetter und Klima am 08.07.2015 Holzhau im Erzgebirge (630m ü.NN)
Letzte gemessene Temperatur und Uhrzeit der Messung23:45:00 Uhr13.60 °C
Temperatur (Maximum / Höchstwert) und Uhrzeit der Messung15:30:00 Uhr20.60 °C
Temperatur (Minimum / Tiefstwert) und Uhrzeit der Messung23:45:0013.60 °C
Errechneter Absolutwert der Temperaturschwankungen zwischen Tmin und Tmax des Tages7.00 K
Errechnete Tagesmitteltemperatur17.20833 °C
Gesamt - Niederschlag des Tages (in flüssiger Form)4.14 Liter / m²
Luftdruck (Maximum / Höchstwert) und Zeitpunkt der Messung22:45:00 Uhr1011.60 hPa
Luftdruck (Minimum / Tiefstwert) und Zeitpunkt der Messung03:00:00 Uhr1006.90 hPa
Errechneter Absolutwert der Luftdruckschwankungen des Tages4.70 hPa
Höchste gemessene Windgeschwindigkeit und Uhrzeit der Messung10:00:00 Uhr18.00 km/h
Errechnete Windhäufigkeit in Relation zu den Messwerten des Tages15.62500 %
Niedrigste Windkühle (Windchill) und Zeitpunkt der Messung23:45:00 Uhr13.60 °C
Taupunkt (Maximum / Höchstwert) und Uhrzeit der Messung08:45:00 Uhr17.10 °C
Taupunkt (Minimum / Tiefstwert) und Uhrzeit der Messung23:00:007.20 °C
Anzahl der automatisch eingelesenen Messwerte 96

Detaillierte Wetter- und Klima- Messwerte für den 08.07.2015 in Holzhau im Erzgebirge (630m ü.NN)
ZeitTemperaturLuftdruckRel. LuftfeuchteWindWindrichtungWindchillTaupunktNiederschlag l/m²
23:45:0013.60 °C1011.40 hPa67.00 %7.60 °C4.14
23:30:0013.90 °C1011.20 hPa66.00 %7.70 °C4.14
23:15:0013.80 °C1011.20 hPa66.00 %7.60 °C4.14
23:00:0013.60 °C1011.40 hPa65.00 %7.20 °C4.14
22:45:0014.30 °C1011.60 hPa64.00 %7.60 °C4.14
22:30:0014.50 °C1011.50 hPa64.00 %7.80 °C4.14
22:15:0014.80 °C1011.40 hPa62.00 %7.60 °C4.14
22:00:0014.90 °C1011.30 hPa61.00 %7.50 °C4.14
21:45:0015.00 °C1011.10 hPa61.00 %7.50 °C4.14
21:30:0015.00 °C1011.00 hPa60.00 %7.30 °C4.14
21:15:0015.10 °C1011.00 hPa60.00 %7.40 °C4.14
21:00:0015.30 °C1010.80 hPa59.00 %7.30 °C4.14
20:45:0015.60 °C1010.60 hPa58.00 %7.40 °C4.14
20:30:0015.90 °C1010.90 hPa57.00 %7.40 °C4.14
20:15:0016.10 °C1010.80 hPa56.00 %7.30 °C4.14
20:00:0016.30 °C1010.70 hPa55.00 %7.30 °C4.14
19:45:0016.90 °C1010.60 hPa53.00 %7.30 °C4.14
19:30:0016.90 °C1010.50 hPa53.00 %7.30 °C4.14
19:15:0017.40 °C1010.40 hPa52.00 %7.50 °C4.14
19:00:0017.30 °C1010.40 hPa54.00 %7.90 °C4.14
18:45:0017.60 °C1010.50 hPa53.00 %7.90 °C4.14
18:30:0018.10 °C1010.50 hPa52.00 %8.10 °C4.14
18:15:0017.80 °C1010.30 hPa53.00 %8.10 °C4.14
18:00:0018.20 °C1010.40 hPa53.00 %8.50 °C4.14
17:45:0018.60 °C1010.00 hPa53.00 %8.80 °C4.14
17:30:0018.50 °C1010.10 hPa52.00 %8.50 °C4.14
17:15:0019.40 °C1010.10 hPa51.00 %9.00 °C4.14
17:00:0019.40 °C1010.00 hPa54.00 %3.24 km/hWNW19.40 °C9.90 °C4.14
16:45:0018.90 °C1009.50 hPa52.00 %13.68 km/hWNW19.00 °C8.80 °C4.14
16:30:0019.30 °C1009.80 hPa51.00 %8.90 °C4.14
16:15:0019.90 °C1009.80 hPa51.00 %9.50 °C4.14
16:00:0019.60 °C1009.60 hPa54.00 %10.00 °C4.14
15:45:0020.20 °C1009.50 hPa49.00 %9.20 °C4.14
15:30:0020.60 °C1009.40 hPa51.00 %10.44 km/hWNW21.30 °C10.10 °C4.14
15:15:0020.40 °C1009.30 hPa53.00 %6.48 km/hSW21.40 °C10.50 °C4.14
15:00:0019.60 °C1009.30 hPa54.00 %10.00 °C4.14
14:45:0019.90 °C1009.10 hPa53.00 %10.00 °C4.14
14:30:0020.10 °C1008.80 hPa52.00 %9.90 °C4.14
14:15:0020.20 °C1008.70 hPa53.00 %15.48 km/hSW20.50 °C10.30 °C4.14
14:00:0020.60 °C1008.90 hPa56.00 %11.50 °C4.14
13:45:0020.40 °C1008.80 hPa56.00 %11.30 °C4.14
13:30:0019.90 °C1008.70 hPa57.00 %11.10 °C4.14
13:15:0019.60 °C1008.50 hPa57.00 %10.90 °C4.14
13:00:0019.50 °C1008.60 hPa59.00 %11.30 °C4.14
12:45:0019.40 °C1008.70 hPa59.00 %11.20 °C4.14
12:30:0018.30 °C1008.70 hPa64.00 %7.20 km/hWSW18.90 °C11.40 °C4.14
12:15:0017.80 °C1008.40 hPa65.00 %5.04 km/hSW18.60 °C11.10 °C4.14
12:00:0017.90 °C1008.60 hPa64.00 %4.32 km/hS17.90 °C11.00 °C4.14
11:45:0018.80 °C1008.60 hPa65.00 %8.64 km/hSW19.30 °C12.10 °C4.14
11:30:0018.90 °C1008.80 hPa65.00 %12.20 °C4.14
11:15:0019.30 °C1008.50 hPa68.00 %13.20 °C4.14
11:00:0019.50 °C1008.30 hPa68.00 %13.40 °C4.14
10:45:0018.80 °C1008.40 hPa69.00 %3.96 km/hW18.80 °C13.00 °C4.14
10:30:0018.90 °C1008.50 hPa70.00 %7.20 km/hNNW19.60 °C13.30 °C4.14
10:15:0018.40 °C1008.40 hPa70.00 %12.80 °C4.14
10:00:0018.40 °C1008.40 hPa80.00 %18.00 km/hWSW18.10 °C14.90 °C4.14
09:45:0018.10 °C1008.10 hPa83.00 %4.32 km/hNW18.10 °C15.20 °C4.14
09:30:0017.60 °C1008.30 hPa85.00 %15.00 °C4.14
09:15:0017.90 °C1008.40 hPa83.00 %3.24 km/hSSW17.90 °C15.00 °C4.14
09:00:0018.80 °C1008.40 hPa84.00 %14.04 km/hSW18.80 °C16.00 °C4.14
08:45:0019.50 °C1008.40 hPa86.00 %17.10 °C4.14
08:30:0018.60 °C1008.20 hPa90.00 %16.90 °C4.14
08:15:0017.30 °C1008.20 hPa91.00 %15.80 °C4.14
08:00:0017.60 °C1007.80 hPa92.00 %16.30 °C4.14
07:45:0017.30 °C1007.90 hPa92.00 %16.00 °C4.14
07:30:0016.90 °C1007.80 hPa92.00 %15.60 °C4.14
07:15:0016.90 °C1008.00 hPa92.00 %15.60 °C4.14
07:00:0016.80 °C1008.20 hPa92.00 %15.50 °C4.14
06:45:0016.50 °C1008.00 hPa92.00 %15.20 °C4.14
06:30:0016.10 °C1007.80 hPa92.00 %14.80 °C4.14
06:15:0015.80 °C1007.80 hPa92.00 %14.50 °C4.14
06:00:0015.50 °C1008.20 hPa92.00 %14.20 °C4.14
05:45:0015.30 °C1008.00 hPa92.00 %14.00 °C4.14
05:30:0015.20 °C1007.90 hPa91.00 %13.70 °C4.14
05:15:0015.30 °C1008.20 hPa91.00 %13.80 °C4.14
05:00:0014.90 °C1008.10 hPa91.00 %13.40 °C4.14
04:45:0014.90 °C1007.90 hPa91.00 %13.40 °C4.14
04:30:0014.70 °C1007.70 hPa91.00 %13.20 °C4.14
04:15:0014.90 °C1007.50 hPa91.00 %13.40 °C4.14
04:00:0015.00 °C1007.50 hPa90.00 %13.40 °C4.14
03:45:0015.10 °C1007.50 hPa90.00 %13.50 °C4.14
03:30:0015.40 °C1007.30 hPa90.00 %13.80 °C4.14
03:15:0015.60 °C1007.00 hPa90.00 %14.00 °C4.14
03:00:0015.80 °C1006.90 hPa90.00 %14.20 °C4.14
02:45:0015.90 °C1006.90 hPa90.00 %14.30 °C4.14
02:30:0016.10 °C1007.40 hPa90.00 %14.50 °C4.14
02:15:0016.10 °C1007.40 hPa90.00 %14.50 °C4.14
02:00:0016.20 °C1007.30 hPa90.00 %14.60 °C4.14
01:45:0016.30 °C1007.60 hPa90.00 %14.70 °C4.14
01:30:0016.40 °C1007.50 hPa89.00 %14.60 °C3.62
01:15:0016.40 °C1008.80 hPa89.00 %14.60 °C2.07
01:00:0016.40 °C1007.80 hPa88.00 %14.40 °C0.52
00:45:0016.40 °C1006.90 hPa88.00 %14.40 °C0.52
00:30:0016.40 °C1007.40 hPa88.00 %14.40 °C 
00:15:0016.60 °C1007.30 hPa87.00 %14.40 °C 
00:00:0016.60 °C1008.40 hPa83.00 %13.70 °C 

Permanenter Link zu dieser Seite: Wetter im Erzgebirge am 08.07.2015
Performance-Info: Die Erstellung der Seite / Statistik(en) / Tabelle(n) erforderte 5 Datenbankserver-Abfrage(n) und dauerte 100 Millisekunden. (Dieser Messwert ist von der Gesamt-Auslastung des Servers abhängig.)
Erzgebirge - Wetter | Erzgebirge - Wetter (Mobilgeräte) | Komplette Klimadatenbank